createdAt,value
2023-08-08T11:59:06.104Z,101272.66
2023-08-08T12:03:08.944Z,101275.41
2023-08-08T12:07:11.209Z,101279.00
2023-08-08T12:11:14.567Z,101272.16
2023-08-08T12:15:17.003Z,101269.94
2023-08-08T12:19:24.763Z,101275.22
2023-08-08T12:23:28.103Z,101277.22
2023-08-08T12:27:31.241Z,101276.91
2023-08-08T12:31:33.232Z,101273.75
2023-08-08T12:35:35.150Z,101283.56
2023-08-08T12:39:37.029Z,101275.53
2023-08-08T12:43:38.897Z,101271.94
2023-08-08T12:47:40.998Z,101286.28
2023-08-08T12:51:43.072Z,101285.34
2023-08-08T12:55:45.301Z,101272.09
2023-08-08T12:59:47.257Z,101286.69
2023-08-08T13:04:02.877Z,101291.22
2023-08-08T13:08:11.107Z,101292.81
2023-08-08T13:12:13.028Z,101292.69
2023-08-08T13:16:15.217Z,101289.75
2023-08-08T13:20:17.122Z,101287.63
2023-08-08T13:24:19.392Z,101291.78
2023-08-08T13:28:21.311Z,101297.22
2023-08-08T13:32:23.320Z,101298.03
2023-08-08T13:36:25.447Z,101293.53
2023-08-08T13:40:27.681Z,101294.38
2023-08-08T13:44:29.799Z,101298.50
2023-08-08T13:48:31.726Z,101294.56
2023-08-08T13:52:34.763Z,101287.91
2023-08-08T13:56:36.676Z,101307.56
2023-08-08T14:00:38.539Z,101317.50
2023-08-08T14:04:40.419Z,101301.34
2023-08-08T14:08:42.394Z,101299.31
2023-08-08T14:12:44.429Z,101308.09
2023-08-08T14:16:46.327Z,101285.28
2023-08-08T14:20:48.215Z,101293.47
2023-08-08T14:24:50.078Z,101291.03
2023-08-08T14:28:51.936Z,101275.50
2023-08-08T14:32:54.169Z,101277.91
2023-08-08T14:36:56.276Z,101272.06
2023-08-08T14:40:58.177Z,101269.28
2023-08-08T14:45:00.026Z,101263.78
2023-08-08T14:49:01.934Z,101278.25
2023-08-08T14:53:04.423Z,101277.91
2023-08-08T14:57:06.822Z,101288.50
2023-08-08T15:01:08.700Z,101284.84
2023-08-08T15:05:10.599Z,101287.72
2023-08-08T15:09:12.614Z,101284.75
2023-08-08T15:13:14.475Z,101290.56
2023-08-08T15:17:16.433Z,101274.63
2023-08-08T15:21:20.894Z,101277.13
2023-08-08T15:25:23.140Z,101276.09
2023-08-08T15:29:26.425Z,101295.50
2023-08-08T15:33:29.752Z,101294.19
2023-08-08T15:37:31.610Z,101297.06
2023-08-08T15:41:33.654Z,101295.75
2023-08-08T15:45:35.508Z,101294.47
2023-08-08T15:49:38.522Z,101300.53
2023-08-08T15:53:40.424Z,101302.75
2023-08-08T15:57:42.506Z,101295.66
2023-08-08T16:01:44.417Z,101276.84
2023-08-08T16:05:46.260Z,101287.38
2023-08-08T16:09:48.113Z,101289.72
2023-08-08T16:13:49.996Z,101282.84
2023-08-08T16:17:52.155Z,101292.53
2023-08-08T16:21:54.085Z,101283.75
2023-08-08T16:25:55.928Z,101285.91
2023-08-08T16:29:57.889Z,101275.22
2023-08-08T16:33:59.893Z,101272.13
2023-08-08T16:38:01.845Z,101265.84
2023-08-08T16:42:04.209Z,101272.34
2023-08-08T16:46:07.192Z,101265.47
2023-08-08T16:50:09.853Z,101261.09
2023-08-08T16:54:11.734Z,101263.25
2023-08-08T16:58:13.598Z,101264.28
2023-08-08T17:02:15.430Z,101262.63
2023-08-08T17:06:17.902Z,101260.97
2023-08-08T17:10:19.761Z,101263.09
2023-08-08T17:14:21.661Z,101256.81
2023-08-08T17:18:23.502Z,101246.19
2023-08-08T17:22:25.432Z,101240.97
2023-08-08T17:26:27.463Z,101259.16
2023-08-08T17:30:29.728Z,101238.47
2023-08-08T17:34:32.008Z,101240.38
2023-08-08T17:38:34.180Z,101248.53
2023-08-08T17:42:36.128Z,101253.16
2023-08-08T17:46:38.043Z,101246.03
2023-08-08T17:50:39.929Z,101237.28
2023-08-08T17:54:41.870Z,101242.72
2023-08-08T17:58:45.906Z,101246.47
2023-08-08T18:02:47.862Z,101235.59
2023-08-08T18:06:49.729Z,101228.50
2023-08-08T18:10:51.601Z,101229.59
2023-08-08T18:14:54.567Z,101231.47
2023-08-08T18:18:56.432Z,101220.81
2023-08-08T18:22:58.859Z,101211.81
2023-08-08T18:27:00.690Z,101211.81
2023-08-08T18:31:02.684Z,101209.94
2023-08-08T18:35:04.966Z,101204.75
2023-08-08T18:39:07.468Z,101205.81
2023-08-08T18:43:09.323Z,101202.25
2023-08-08T18:47:11.400Z,101201.41
2023-08-08T18:51:13.298Z,101194.31
2023-08-08T18:55:15.308Z,101197.84
2023-08-08T18:59:17.323Z,101195.13
2023-08-08T19:03:19.794Z,101205.44
2023-08-08T19:07:21.857Z,101191.00
2023-08-08T19:11:23.710Z,101187.22
2023-08-08T19:15:25.819Z,101183.69
2023-08-08T19:19:27.666Z,101173.84
2023-08-08T19:23:29.591Z,101171.13
2023-08-08T19:27:31.486Z,101176.56
2023-08-08T19:31:33.487Z,101172.19
2023-08-08T19:35:36.471Z,101182.25
2023-08-08T19:39:38.561Z,101181.41
2023-08-08T19:43:40.576Z,101180.34
2023-08-08T19:47:42.564Z,101182.50
2023-08-08T19:51:44.521Z,101192.28
2023-08-08T19:55:46.380Z,101186.03
2023-08-08T19:59:49.768Z,101188.13
2023-08-08T20:03:51.811Z,101198.56
2023-08-08T20:07:57.091Z,101185.94
2023-08-08T20:11:59.226Z,101192.56
2023-08-08T20:16:01.704Z,101187.88
2023-08-08T20:20:04.179Z,101179.00
2023-08-08T20:24:09.316Z,101177.22
2023-08-08T20:28:11.704Z,101191.44
2023-08-08T20:32:13.586Z,101192.63
2023-08-08T20:36:16.110Z,101179.59
2023-08-08T20:40:18.137Z,101180.00
2023-08-08T20:44:19.949Z,101191.03
2023-08-08T20:48:21.844Z,101165.25
2023-08-08T20:52:23.674Z,101163.34
2023-08-08T20:56:25.535Z,101143.00
2023-08-08T21:00:27.470Z,101139.22
2023-08-08T21:04:29.367Z,101145.25
2023-08-08T21:08:35.496Z,101139.59
2023-08-08T21:12:38.412Z,101135.53
2023-08-08T21:16:40.358Z,101133.66
2023-08-08T21:20:42.312Z,101135.31
2023-08-08T21:24:44.158Z,101139.44
2023-08-08T21:28:46.012Z,101148.22
2023-08-08T21:32:47.923Z,101159.69
2023-08-08T21:36:50.284Z,101155.66
2023-08-08T21:40:52.130Z,101156.50
2023-08-08T21:44:54.034Z,101160.28
2023-08-08T21:48:58.770Z,101159.69
2023-08-08T21:53:00.681Z,101176.25
2023-08-08T21:57:02.825Z,101173.78
2023-08-08T22:01:05.000Z,101179.44
2023-08-08T22:05:07.269Z,101183.59
2023-08-08T22:09:09.119Z,101180.41
2023-08-08T22:13:11.482Z,101178.28
2023-08-08T22:17:13.430Z,101169.06
2023-08-08T22:21:15.264Z,101154.38
2023-08-08T22:25:18.596Z,101157.69
2023-08-08T22:29:20.503Z,101167.28
2023-08-08T22:33:22.487Z,101164.28
2023-08-08T22:37:24.308Z,101165.97
2023-08-08T22:41:26.225Z,101156.13
2023-08-08T22:45:29.035Z,101157.81
2023-08-08T22:49:31.027Z,101154.00
2023-08-08T22:53:32.934Z,101142.88
2023-08-08T22:57:34.959Z,101149.19
2023-08-08T23:01:36.863Z,101157.91
2023-08-08T23:05:38.905Z,101161.47
2023-08-08T23:09:40.754Z,101157.91
2023-08-08T23:13:42.600Z,101157.91
2023-08-08T23:17:44.589Z,101156.84
2023-08-08T23:21:46.583Z,101157.66
2023-08-08T23:25:48.462Z,101155.81
2023-08-08T23:29:50.363Z,101166.69
2023-08-08T23:33:52.206Z,101160.16
2023-08-08T23:37:54.083Z,101169.41
2023-08-08T23:41:56.050Z,101169.16
2023-08-08T23:45:58.564Z,101164.53
2023-08-08T23:50:00.571Z,101165.38
2023-08-08T23:54:04.229Z,101159.09
2023-08-08T23:58:06.183Z,101165.00
